Terminal Aerodrome Forecast
Issued by NWS Omaha/Valley, NE

Home | Current Version | Previous Version | Graphics & Text | Print | Product List | Glossary On
Versions: 1 2 3 4 5 6 7 8 9 10 11 12 13 14 15 16 17 18 19
000
FTUS43 KOAX 252320
TAFOFK
TAF
KOFK 252320Z 2600/2624 34005KT P6SM SCT100
     FM261200 05008KT P6SM SCT060
     FM261400 07011KT P6SM BKN060
     FM261800 08015G23KT P6SM VCSH BKN015
     FM262200 09015G23KT P6SM VCSH OVC010=

USA.gov is the U.S. government's official web portal to all federal, state and local government web resources and services.